sensor_id;sensor_type;location;lat;lon;timestamp;P1;durP1;ratioP1;P2;durP2;ratioP2
15412;SDS011;7805;49.554;7.632;2023-03-07T00:01:23;30.87;;;19.93;;
15412;SDS011;7805;49.554;7.632;2023-03-07T00:03:49;35.87;;;20.90;;
15412;SDS011;7805;49.554;7.632;2023-03-07T00:06:15;31.37;;;20.77;;
15412;SDS011;7805;49.554;7.632;2023-03-07T00:08:41;34.83;;;21.60;;
15412;SDS011;7805;49.554;7.632;2023-03-07T00:11:07;31.67;;;20.23;;
15412;SDS011;7805;49.554;7.632;2023-03-07T00:13:33;35.90;;;20.50;;
15412;SDS011;7805;49.554;7.632;2023-03-07T00:16:09;36.33;;;21.23;;
15412;SDS011;7805;49.554;7.632;2023-03-07T00:18:37;33.37;;;20.33;;
15412;SDS011;7805;49.554;7.632;2023-03-07T00:21:04;32.83;;;21.37;;
15412;SDS011;7805;49.554;7.632;2023-03-07T00:23:35;32.23;;;21.17;;
15412;SDS011;7805;49.554;7.632;2023-03-07T00:26:04;33.50;;;21.83;;
15412;SDS011;7805;49.554;7.632;2023-03-07T00:28:34;34.50;;;21.53;;
15412;SDS011;7805;49.554;7.632;2023-03-07T00:31:04;35.63;;;22.23;;
15412;SDS011;7805;49.554;7.632;2023-03-07T00:33:32;32.07;;;21.33;;
15412;SDS011;7805;49.554;7.632;2023-03-07T00:36:10;34.90;;;23.67;;
15412;SDS011;7805;49.554;7.632;2023-03-07T00:38:40;35.43;;;22.17;;
15412;SDS011;7805;49.554;7.632;2023-03-07T00:41:10;35.53;;;22.40;;
15412;SDS011;7805;49.554;7.632;2023-03-07T00:43:38;37.80;;;23.07;;
15412;SDS011;7805;49.554;7.632;2023-03-07T00:46:05;36.10;;;22.90;;
15412;SDS011;7805;49.554;7.632;2023-03-07T00:48:32;38.60;;;23.23;;
15412;SDS011;7805;49.554;7.632;2023-03-07T00:50:59;34.47;;;23.03;;
15412;SDS011;7805;49.554;7.632;2023-03-07T00:53:25;33.90;;;22.93;;
15412;SDS011;7805;49.554;7.632;2023-03-07T00:58:19;34.67;;;21.27;;
15412;SDS011;7805;49.554;7.632;2023-03-07T01:00:44;34.67;;;22.00;;
15412;SDS011;7805;49.554;7.632;2023-03-07T01:03:10;31.30;;;19.80;;
15412;SDS011;7805;49.554;7.632;2023-03-07T01:05:39;32.33;;;20.80;;
15412;SDS011;7805;49.554;7.632;2023-03-07T01:08:05;36.13;;;22.00;;
15412;SDS011;7805;49.554;7.632;2023-03-07T01:10:31;31.43;;;19.50;;
15412;SDS011;7805;49.554;7.632;2023-03-07T01:12:57;28.13;;;20.47;;
15412;SDS011;7805;49.554;7.632;2023-03-07T01:15:23;28.27;;;20.00;;
15412;SDS011;7805;49.554;7.632;2023-03-07T01:17:49;31.60;;;20.33;;
15412;SDS011;7805;49.554;7.632;2023-03-07T01:20:14;27.57;;;19.73;;
15412;SDS011;7805;49.554;7.632;2023-03-07T01:22:40;25.40;;;17.83;;
15412;SDS011;7805;49.554;7.632;2023-03-07T01:25:06;26.07;;;17.43;;
15412;SDS011;7805;49.554;7.632;2023-03-07T01:27:32;26.47;;;17.67;;
15412;SDS011;7805;49.554;7.632;2023-03-07T01:29:57;25.20;;;17.83;;
15412;SDS011;7805;49.554;7.632;2023-03-07T01:32:23;24.60;;;17.10;;
15412;SDS011;7805;49.554;7.632;2023-03-07T01:34:48;28.23;;;19.37;;
15412;SDS011;7805;49.554;7.632;2023-03-07T01:37:14;26.60;;;17.93;;
15412;SDS011;7805;49.554;7.632;2023-03-07T01:39:39;25.40;;;18.03;;
15412;SDS011;7805;49.554;7.632;2023-03-07T01:42:05;22.50;;;17.23;;
15412;SDS011;7805;49.554;7.632;2023-03-07T01:44:56;24.47;;;17.10;;
15412;SDS011;7805;49.554;7.632;2023-03-07T01:47:24;24.30;;;17.27;;
15412;SDS011;7805;49.554;7.632;2023-03-07T01:49:49;23.07;;;16.87;;
15412;SDS011;7805;49.554;7.632;2023-03-07T01:52:16;25.93;;;18.13;;
15412;SDS011;7805;49.554;7.632;2023-03-07T01:54:51;24.73;;;16.77;;
15412;SDS011;7805;49.554;7.632;2023-03-07T01:57:20;24.60;;;17.60;;
15412;SDS011;7805;49.554;7.632;2023-03-07T01:59:49;25.10;;;17.50;;
15412;SDS011;7805;49.554;7.632;2023-03-07T02:02:18;24.60;;;17.07;;
15412;SDS011;7805;49.554;7.632;2023-03-07T02:07:47;26.33;;;17.57;;
15412;SDS011;7805;49.554;7.632;2023-03-07T02:10:14;23.30;;;17.13;;
15412;SDS011;7805;49.554;7.632;2023-03-07T02:12:42;25.17;;;18.27;;
15412;SDS011;7805;49.554;7.632;2023-03-07T02:15:08;26.33;;;17.33;;
15412;SDS011;7805;49.554;7.632;2023-03-07T02:17:35;23.07;;;16.63;;
15412;SDS011;7805;49.554;7.632;2023-03-07T02:22:37;26.40;;;17.27;;
15412;SDS011;7805;49.554;7.632;2023-03-07T02:25:05;27.00;;;17.90;;
15412;SDS011;7805;49.554;7.632;2023-03-07T02:27:32;27.67;;;18.77;;
15412;SDS011;7805;49.554;7.632;2023-03-07T02:30:00;28.97;;;19.53;;
15412;SDS011;7805;49.554;7.632;2023-03-07T02:32:26;25.60;;;18.10;;
15412;SDS011;7805;49.554;7.632;2023-03-07T02:34:51;24.30;;;18.03;;
15412;SDS011;7805;49.554;7.632;2023-03-07T02:37:24;28.13;;;19.23;;
15412;SDS011;7805;49.554;7.632;2023-03-07T02:39:55;26.37;;;18.20;;
15412;SDS011;7805;49.554;7.632;2023-03-07T02:42:27;28.13;;;19.50;;
15412;SDS011;7805;49.554;7.632;2023-03-07T02:44:59;26.83;;;18.43;;
15412;SDS011;7805;49.554;7.632;2023-03-07T02:47:28;28.20;;;19.00;;
15412;SDS011;7805;49.554;7.632;2023-03-07T02:49:53;28.23;;;19.30;;
15412;SDS011;7805;49.554;7.632;2023-03-07T02:52:20;24.37;;;18.40;;
15412;SDS011;7805;49.554;7.632;2023-03-07T02:54:47;30.30;;;19.77;;
15412;SDS011;7805;49.554;7.632;2023-03-07T02:57:13;30.57;;;20.80;;
15412;SDS011;7805;49.554;7.632;2023-03-07T02:59:38;30.63;;;20.27;;
15412;SDS011;7805;49.554;7.632;2023-03-07T03:02:04;31.03;;;21.40;;
15412;SDS011;7805;49.554;7.632;2023-03-07T03:04:30;32.50;;;21.93;;
15412;SDS011;7805;49.554;7.632;2023-03-07T03:06:55;30.93;;;21.77;;
15412;SDS011;7805;49.554;7.632;2023-03-07T03:09:21;33.77;;;22.90;;
15412;SDS011;7805;49.554;7.632;2023-03-07T03:11:47;31.57;;;22.37;;
15412;SDS011;7805;49.554;7.632;2023-03-07T03:14:12;33.10;;;21.97;;
15412;SDS011;7805;49.554;7.632;2023-03-07T03:16:38;34.83;;;23.17;;
15412;SDS011;7805;49.554;7.632;2023-03-07T03:19:04;34.07;;;23.20;;
15412;SDS011;7805;49.554;7.632;2023-03-07T03:21:30;34.10;;;22.20;;
15412;SDS011;7805;49.554;7.632;2023-03-07T03:23:56;33.37;;;22.23;;
15412;SDS011;7805;49.554;7.632;2023-03-07T03:26:21;31.37;;;22.77;;
15412;SDS011;7805;49.554;7.632;2023-03-07T03:28:47;31.27;;;21.27;;
15412;SDS011;7805;49.554;7.632;2023-03-07T03:31:13;33.37;;;21.97;;
15412;SDS011;7805;49.554;7.632;2023-03-07T03:33:39;32.63;;;21.80;;
15412;SDS011;7805;49.554;7.632;2023-03-07T03:36:07;34.40;;;22.03;;
15412;SDS011;7805;49.554;7.632;2023-03-07T03:38:38;33.23;;;21.73;;
15412;SDS011;7805;49.554;7.632;2023-03-07T03:41:04;29.87;;;20.97;;
15412;SDS011;7805;49.554;7.632;2023-03-07T03:43:31;34.00;;;21.73;;
15412;SDS011;7805;49.554;7.632;2023-03-07T03:45:57;30.93;;;20.50;;
15412;SDS011;7805;49.554;7.632;2023-03-07T03:48:23;31.70;;;21.43;;
15412;SDS011;7805;49.554;7.632;2023-03-07T03:50:49;27.90;;;20.80;;
15412;SDS011;7805;49.554;7.632;2023-03-07T03:53:15;30.27;;;20.83;;
15412;SDS011;7805;49.554;7.632;2023-03-07T03:55:40;29.10;;;21.20;;
15412;SDS011;7805;49.554;7.632;2023-03-07T03:58:06;29.50;;;21.20;;
15412;SDS011;7805;49.554;7.632;2023-03-07T04:00:32;30.33;;;22.10;;
15412;SDS011;7805;49.554;7.632;2023-03-07T04:02:57;30.30;;;21.57;;
15412;SDS011;7805;49.554;7.632;2023-03-07T04:05:23;31.30;;;21.10;;
15412;SDS011;7805;49.554;7.632;2023-03-07T04:07:48;29.30;;;20.80;;
15412;SDS011;7805;49.554;7.632;2023-03-07T04:10:14;34.33;;;20.97;;
15412;SDS011;7805;49.554;7.632;2023-03-07T04:12:40;28.43;;;19.77;;
15412;SDS011;7805;49.554;7.632;2023-03-07T04:15:06;29.13;;;19.97;;
15412;SDS011;7805;49.554;7.632;2023-03-07T04:17:32;30.97;;;20.70;;
15412;SDS011;7805;49.554;7.632;2023-03-07T04:19:58;28.63;;;18.67;;
15412;SDS011;7805;49.554;7.632;2023-03-07T04:22:24;28.27;;;19.37;;
15412;SDS011;7805;49.554;7.632;2023-03-07T04:24:49;26.87;;;19.30;;
15412;SDS011;7805;49.554;7.632;2023-03-07T04:27:15;26.50;;;18.27;;
15412;SDS011;7805;49.554;7.632;2023-03-07T04:29:41;27.33;;;19.73;;
15412;SDS011;7805;49.554;7.632;2023-03-07T04:32:07;24.93;;;17.53;;
15412;SDS011;7805;49.554;7.632;2023-03-07T04:34:32;28.03;;;18.67;;
15412;SDS011;7805;49.554;7.632;2023-03-07T04:36:58;28.47;;;18.37;;
15412;SDS011;7805;49.554;7.632;2023-03-07T04:39:24;24.00;;;16.47;;
15412;SDS011;7805;49.554;7.632;2023-03-07T04:41:49;25.10;;;17.80;;
15412;SDS011;7805;49.554;7.632;2023-03-07T04:44:15;25.57;;;17.90;;
15412;SDS011;7805;49.554;7.632;2023-03-07T04:46:41;26.60;;;18.57;;
15412;SDS011;7805;49.554;7.632;2023-03-07T04:49:06;24.63;;;16.47;;
15412;SDS011;7805;49.554;7.632;2023-03-07T04:51:32;23.87;;;16.53;;
15412;SDS011;7805;49.554;7.632;2023-03-07T04:53:57;25.97;;;16.37;;
15412;SDS011;7805;49.554;7.632;2023-03-07T04:56:23;26.07;;;16.77;;
15412;SDS011;7805;49.554;7.632;2023-03-07T04:58:48;24.03;;;16.10;;
15412;SDS011;7805;49.554;7.632;2023-03-07T05:01:14;25.60;;;16.33;;
15412;SDS011;7805;49.554;7.632;2023-03-07T05:03:40;27.03;;;16.97;;
15412;SDS011;7805;49.554;7.632;2023-03-07T05:06:06;25.50;;;17.50;;
15412;SDS011;7805;49.554;7.632;2023-03-07T05:08:36;24.23;;;16.23;;
15412;SDS011;7805;49.554;7.632;2023-03-07T05:11:02;23.37;;;15.93;;
15412;SDS011;7805;49.554;7.632;2023-03-07T05:13:27;25.63;;;15.83;;
15412;SDS011;7805;49.554;7.632;2023-03-07T05:15:54;24.27;;;14.67;;
15412;SDS011;7805;49.554;7.632;2023-03-07T05:18:20;21.37;;;15.53;;
15412;SDS011;7805;49.554;7.632;2023-03-07T05:20:46;21.47;;;14.57;;
15412;SDS011;7805;49.554;7.632;2023-03-07T05:23:12;23.63;;;15.70;;
15412;SDS011;7805;49.554;7.632;2023-03-07T05:25:38;25.13;;;15.30;;
15412;SDS011;7805;49.554;7.632;2023-03-07T05:28:03;22.10;;;15.43;;
15412;SDS011;7805;49.554;7.632;2023-03-07T05:30:29;34.67;;;20.73;;
15412;SDS011;7805;49.554;7.632;2023-03-07T05:32:54;20.20;;;14.27;;
15412;SDS011;7805;49.554;7.632;2023-03-07T05:35:20;21.67;;;14.47;;
15412;SDS011;7805;49.554;7.632;2023-03-07T05:37:48;22.87;;;14.90;;
15412;SDS011;7805;49.554;7.632;2023-03-07T05:40:14;20.13;;;14.37;;
15412;SDS011;7805;49.554;7.632;2023-03-07T05:42:40;22.10;;;14.77;;
15412;SDS011;7805;49.554;7.632;2023-03-07T05:45:06;21.60;;;15.53;;
15412;SDS011;7805;49.554;7.632;2023-03-07T05:47:32;20.80;;;14.00;;
15412;SDS011;7805;49.554;7.632;2023-03-07T05:49:58;23.07;;;13.77;;
15412;SDS011;7805;49.554;7.632;2023-03-07T05:52:24;19.67;;;12.93;;
15412;SDS011;7805;49.554;7.632;2023-03-07T05:54:50;20.50;;;14.20;;
15412;SDS011;7805;49.554;7.632;2023-03-07T05:57:15;18.80;;;13.67;;
15412;SDS011;7805;49.554;7.632;2023-03-07T05:59:41;23.20;;;15.17;;
15412;SDS011;7805;49.554;7.632;2023-03-07T06:02:06;18.07;;;13.63;;
15412;SDS011;7805;49.554;7.632;2023-03-07T06:04:32;19.60;;;13.57;;
15412;SDS011;7805;49.554;7.632;2023-03-07T06:06:57;18.40;;;13.37;;
15412;SDS011;7805;49.554;7.632;2023-03-07T06:09:23;19.03;;;12.50;;
15412;SDS011;7805;49.554;7.632;2023-03-07T06:11:49;16.70;;;12.70;;
15412;SDS011;7805;49.554;7.632;2023-03-07T06:14:15;18.17;;;12.47;;
15412;SDS011;7805;49.554;7.632;2023-03-07T06:16:41;18.20;;;12.63;;
15412;SDS011;7805;49.554;7.632;2023-03-07T06:19:07;18.33;;;12.30;;
15412;SDS011;7805;49.554;7.632;2023-03-07T06:21:32;19.20;;;12.33;;
15412;SDS011;7805;49.554;7.632;2023-03-07T06:23:58;18.90;;;12.53;;
15412;SDS011;7805;49.554;7.632;2023-03-07T06:26:23;22.47;;;13.57;;
15412;SDS011;7805;49.554;7.632;2023-03-07T06:28:49;18.87;;;11.90;;
15412;SDS011;7805;49.554;7.632;2023-03-07T06:31:16;22.67;;;12.47;;
15412;SDS011;7805;49.554;7.632;2023-03-07T06:33:43;18.43;;;13.50;;
15412;SDS011;7805;49.554;7.632;2023-03-07T06:36:13;17.43;;;12.40;;
15412;SDS011;7805;49.554;7.632;2023-03-07T06:38:40;17.77;;;12.10;;
15412;SDS011;7805;49.554;7.632;2023-03-07T06:41:06;16.37;;;11.80;;
15412;SDS011;7805;49.554;7.632;2023-03-07T06:43:32;16.43;;;11.80;;
15412;SDS011;7805;49.554;7.632;2023-03-07T06:45:58;23.23;;;13.13;;
15412;SDS011;7805;49.554;7.632;2023-03-07T06:48:24;17.27;;;11.83;;
15412;SDS011;7805;49.554;7.632;2023-03-07T06:50:50;18.17;;;12.83;;
15412;SDS011;7805;49.554;7.632;2023-03-07T06:53:16;17.03;;;12.80;;
15412;SDS011;7805;49.554;7.632;2023-03-07T06:55:42;18.30;;;11.47;;
15412;SDS011;7805;49.554;7.632;2023-03-07T06:58:07;18.17;;;12.10;;
15412;SDS011;7805;49.554;7.632;2023-03-07T07:00:33;19.40;;;12.30;;
15412;SDS011;7805;49.554;7.632;2023-03-07T07:02:58;17.63;;;12.10;;
15412;SDS011;7805;49.554;7.632;2023-03-07T07:05:24;18.20;;;12.07;;
15412;SDS011;7805;49.554;7.632;2023-03-07T07:07:50;18.27;;;12.67;;
15412;SDS011;7805;49.554;7.632;2023-03-07T07:10:15;20.20;;;14.57;;
15412;SDS011;7805;49.554;7.632;2023-03-07T07:12:41;16.67;;;11.90;;
15412;SDS011;7805;49.554;7.632;2023-03-07T07:17:42;18.37;;;11.17;;
15412;SDS011;7805;49.554;7.632;2023-03-07T07:20:08;15.50;;;10.57;;
15412;SDS011;7805;49.554;7.632;2023-03-07T07:22:35;17.20;;;11.50;;
15412;SDS011;7805;49.554;7.632;2023-03-07T07:25:00;16.70;;;12.33;;
15412;SDS011;7805;49.554;7.632;2023-03-07T07:27:26;17.23;;;11.00;;
15412;SDS011;7805;49.554;7.632;2023-03-07T07:29:52;16.07;;;11.40;;
15412;SDS011;7805;49.554;7.632;2023-03-07T07:32:18;14.10;;;10.97;;
15412;SDS011;7805;49.554;7.632;2023-03-07T07:34:43;16.97;;;11.00;;
15412;SDS011;7805;49.554;7.632;2023-03-07T07:37:09;13.67;;;10.77;;
15412;SDS011;7805;49.554;7.632;2023-03-07T07:39:34;15.60;;;10.27;;
15412;SDS011;7805;49.554;7.632;2023-03-07T07:42:00;16.37;;;10.10;;
15412;SDS011;7805;49.554;7.632;2023-03-07T07:44:29;14.57;;;10.03;;
15412;SDS011;7805;49.554;7.632;2023-03-07T07:46:55;12.73;;;10.40;;
15412;SDS011;7805;49.554;7.632;2023-03-07T07:49:20;14.90;;;10.37;;
15412;SDS011;7805;49.554;7.632;2023-03-07T07:51:46;17.30;;;10.20;;
15412;SDS011;7805;49.554;7.632;2023-03-07T07:54:12;14.47;;;10.77;;
15412;SDS011;7805;49.554;7.632;2023-03-07T07:56:37;14.30;;;10.03;;
15412;SDS011;7805;49.554;7.632;2023-03-07T07:59:03;14.63;;;10.33;;
15412;SDS011;7805;49.554;7.632;2023-03-07T08:01:28;13.57;;;9.93;;
15412;SDS011;7805;49.554;7.632;2023-03-07T08:03:54;14.00;;;9.50;;
15412;SDS011;7805;49.554;7.632;2023-03-07T08:06:20;16.03;;;10.00;;
15412;SDS011;7805;49.554;7.632;2023-03-07T08:08:48;13.13;;;9.60;;
15412;SDS011;7805;49.554;7.632;2023-03-07T08:11:14;16.00;;;9.87;;
15412;SDS011;7805;49.554;7.632;2023-03-07T08:13:41;13.63;;;9.17;;
15412;SDS011;7805;49.554;7.632;2023-03-07T08:16:40;13.63;;;9.57;;
15412;SDS011;7805;49.554;7.632;2023-03-07T08:18:58;16.57;;;11.53;;
15412;SDS011;7805;49.554;7.632;2023-03-07T08:21:25;14.17;;;10.20;;
15412;SDS011;7805;49.554;7.632;2023-03-07T08:23:54;13.77;;;9.43;;
15412;SDS011;7805;49.554;7.632;2023-03-07T08:26:20;12.13;;;9.27;;
15412;SDS011;7805;49.554;7.632;2023-03-07T08:28:46;11.50;;;9.33;;
15412;SDS011;7805;49.554;7.632;2023-03-07T08:31:13;14.23;;;9.73;;
15412;SDS011;7805;49.554;7.632;2023-03-07T08:33:45;12.53;;;9.07;;
15412;SDS011;7805;49.554;7.632;2023-03-07T08:36:11;13.73;;;9.60;;
15412;SDS011;7805;49.554;7.632;2023-03-07T08:38:37;14.03;;;10.10;;
15412;SDS011;7805;49.554;7.632;2023-03-07T08:41:04;13.07;;;9.60;;
15412;SDS011;7805;49.554;7.632;2023-03-07T08:43:31;12.50;;;8.80;;
15412;SDS011;7805;49.554;7.632;2023-03-07T08:45:58;14.77;;;9.07;;
15412;SDS011;7805;49.554;7.632;2023-03-07T08:48:24;12.00;;;8.97;;
15412;SDS011;7805;49.554;7.632;2023-03-07T08:50:50;11.90;;;9.47;;
15412;SDS011;7805;49.554;7.632;2023-03-07T08:53:16;10.97;;;8.80;;
15412;SDS011;7805;49.554;7.632;2023-03-07T08:55:42;12.70;;;8.60;;
15412;SDS011;7805;49.554;7.632;2023-03-07T08:58:07;10.80;;;9.07;;
15412;SDS011;7805;49.554;7.632;2023-03-07T09:00:34;14.80;;;10.83;;
15412;SDS011;7805;49.554;7.632;2023-03-07T09:02:59;11.57;;;9.20;;
15412;SDS011;7805;49.554;7.632;2023-03-07T09:05:25;11.50;;;8.87;;
15412;SDS011;7805;49.554;7.632;2023-03-07T09:07:52;10.73;;;9.07;;
15412;SDS011;7805;49.554;7.632;2023-03-07T09:10:18;13.90;;;9.97;;
15412;SDS011;7805;49.554;7.632;2023-03-07T09:12:45;12.47;;;9.50;;
15412;SDS011;7805;49.554;7.632;2023-03-07T09:15:10;11.83;;;9.23;;
15412;SDS011;7805;49.554;7.632;2023-03-07T09:17:36;13.27;;;9.83;;
15412;SDS011;7805;49.554;7.632;2023-03-07T09:20:02;11.60;;;8.97;;
15412;SDS011;7805;49.554;7.632;2023-03-07T09:22:28;10.83;;;9.03;;
15412;SDS011;7805;49.554;7.632;2023-03-07T09:24:54;13.17;;;8.27;;
15412;SDS011;7805;49.554;7.632;2023-03-07T09:27:19;12.63;;;8.57;;
15412;SDS011;7805;49.554;7.632;2023-03-07T09:29:45;11.53;;;8.77;;
15412;SDS011;7805;49.554;7.632;2023-03-07T09:32:11;10.17;;;8.47;;
15412;SDS011;7805;49.554;7.632;2023-03-07T09:34:37;12.80;;;8.27;;
15412;SDS011;7805;49.554;7.632;2023-03-07T09:37:02;9.70;;;7.97;;
15412;SDS011;7805;49.554;7.632;2023-03-07T09:39:28;10.23;;;8.13;;
15412;SDS011;7805;49.554;7.632;2023-03-07T09:49:51;9.60;;;8.60;;
15412;SDS011;7805;49.554;7.632;2023-03-07T09:52:19;9.57;;;8.17;;
15412;SDS011;7805;49.554;7.632;2023-03-07T09:55:03;11.13;;;7.87;;
15412;SDS011;7805;49.554;7.632;2023-03-07T09:57:44;11.50;;;8.47;;
15412;SDS011;7805;49.554;7.632;2023-03-07T10:05:35;10.40;;;7.97;;
15412;SDS011;7805;49.554;7.632;2023-03-07T10:08:04;11.63;;;7.97;;
15412;SDS011;7805;49.554;7.632;2023-03-07T10:10:35;9.87;;;8.37;;
15412;SDS011;7805;49.554;7.632;2023-03-07T10:13:10;12.30;;;8.70;;
15412;SDS011;7805;49.554;7.632;2023-03-07T10:28:59;12.90;;;9.23;;
15412;SDS011;7805;49.554;7.632;2023-03-07T10:31:31;12.43;;;9.73;;
15412;SDS011;7805;49.554;7.632;2023-03-07T10:34:00;12.17;;;10.37;;
15412;SDS011;7805;49.554;7.632;2023-03-07T10:36:45;12.77;;;10.43;;
15412;SDS011;7805;49.554;7.632;2023-03-07T10:41:56;12.63;;;9.70;;
15412;SDS011;7805;49.554;7.632;2023-03-07T10:44:22;12.37;;;9.93;;
15412;SDS011;7805;49.554;7.632;2023-03-07T10:46:57;14.47;;;10.67;;
15412;SDS011;7805;49.554;7.632;2023-03-07T10:49:27;11.77;;;9.57;;
15412;SDS011;7805;49.554;7.632;2023-03-07T10:52:08;12.17;;;9.67;;
15412;SDS011;7805;49.554;7.632;2023-03-07T10:58:10;9.37;;;7.73;;
15412;SDS011;7805;49.554;7.632;2023-03-07T11:00:40;10.67;;;9.37;;
15412;SDS011;7805;49.554;7.632;2023-03-07T11:03:23;10.37;;;9.27;;
15412;SDS011;7805;49.554;7.632;2023-03-07T11:05:53;15.03;;;8.83;;
15412;SDS011;7805;49.554;7.632;2023-03-07T11:08:26;12.43;;;9.00;;
15412;SDS011;7805;49.554;7.632;2023-03-07T11:11:01;11.57;;;9.10;;
15412;SDS011;7805;49.554;7.632;2023-03-07T11:13:28;14.80;;;10.10;;
15412;SDS011;7805;49.554;7.632;2023-03-07T11:18:43;10.93;;;9.07;;
15412;SDS011;7805;49.554;7.632;2023-03-07T11:21:26;12.97;;;9.93;;
15412;SDS011;7805;49.554;7.632;2023-03-07T11:24:02;13.90;;;9.47;;
15412;SDS011;7805;49.554;7.632;2023-03-07T11:26:44;12.60;;;9.57;;
15412;SDS011;7805;49.554;7.632;2023-03-07T11:29:10;11.83;;;9.70;;
15412;SDS011;7805;49.554;7.632;2023-03-07T11:36:55;14.00;;;10.23;;
15412;SDS011;7805;49.554;7.632;2023-03-07T11:39:37;15.00;;;12.10;;
15412;SDS011;7805;49.554;7.632;2023-03-07T11:42:16;15.67;;;11.10;;
15412;SDS011;7805;49.554;7.632;2023-03-07T11:44:51;15.23;;;11.17;;
15412;SDS011;7805;49.554;7.632;2023-03-07T11:50:10;15.57;;;12.20;;
15412;SDS011;7805;49.554;7.632;2023-03-07T11:58:09;14.37;;;11.20;;
15412;SDS011;7805;49.554;7.632;2023-03-07T12:09:48;14.13;;;11.53;;
15412;SDS011;7805;49.554;7.632;2023-03-07T12:25:27;14.00;;;10.63;;
15412;SDS011;7805;49.554;7.632;2023-03-07T12:36:15;14.60;;;11.20;;
15412;SDS011;7805;49.554;7.632;2023-03-07T12:38:57;16.83;;;11.07;;
15412;SDS011;7805;49.554;7.632;2023-03-07T12:44:35;17.27;;;11.87;;
15412;SDS011;7805;49.554;7.632;2023-03-07T12:47:05;14.67;;;11.60;;
15412;SDS011;7805;49.554;7.632;2023-03-07T12:49:41;14.80;;;10.33;;
15412;SDS011;7805;49.554;7.632;2023-03-07T12:52:17;12.43;;;9.67;;
15412;SDS011;7805;49.554;7.632;2023-03-07T12:55:05;15.97;;;12.37;;
15412;SDS011;7805;49.554;7.632;2023-03-07T12:57:40;16.23;;;11.83;;
15412;SDS011;7805;49.554;7.632;2023-03-07T13:00:09;17.00;;;11.40;;
15412;SDS011;7805;49.554;7.632;2023-03-07T13:02:42;16.70;;;11.20;;
15412;SDS011;7805;49.554;7.632;2023-03-07T13:05:19;12.57;;;8.80;;
15412;SDS011;7805;49.554;7.632;2023-03-07T13:07:46;14.23;;;9.77;;
15412;SDS011;7805;49.554;7.632;2023-03-07T13:10:20;14.83;;;9.10;;
15412;SDS011;7805;49.554;7.632;2023-03-07T13:12:48;13.10;;;9.97;;
15412;SDS011;7805;49.554;7.632;2023-03-07T13:42:58;17.90;;;10.83;;
15412;SDS011;7805;49.554;7.632;2023-03-07T13:58:45;14.47;;;10.23;;
15412;SDS011;7805;49.554;7.632;2023-03-07T14:06:52;16.03;;;11.00;;
15412;SDS011;7805;49.554;7.632;2023-03-07T14:09:43;14.03;;;10.40;;
15412;SDS011;7805;49.554;7.632;2023-03-07T14:25:35;16.20;;;11.50;;
15412;SDS011;7805;49.554;7.632;2023-03-07T14:28:16;16.23;;;11.67;;
15412;SDS011;7805;49.554;7.632;2023-03-07T14:30:55;15.20;;;11.43;;
15412;SDS011;7805;49.554;7.632;2023-03-07T14:33:33;16.80;;;11.90;;
15412;SDS011;7805;49.554;7.632;2023-03-07T14:36:01;17.03;;;11.60;;
15412;SDS011;7805;49.554;7.632;2023-03-07T14:38:29;14.10;;;10.27;;
15412;SDS011;7805;49.554;7.632;2023-03-07T14:52:07;14.80;;;10.50;;
15412;SDS011;7805;49.554;7.632;2023-03-07T14:54:37;14.87;;;11.13;;
15412;SDS011;7805;49.554;7.632;2023-03-07T14:57:02;15.17;;;9.97;;
15412;SDS011;7805;49.554;7.632;2023-03-07T14:59:28;13.30;;;9.23;;
15412;SDS011;7805;49.554;7.632;2023-03-07T15:01:54;13.23;;;10.43;;
15412;SDS011;7805;49.554;7.632;2023-03-07T15:06:58;14.37;;;10.07;;
15412;SDS011;7805;49.554;7.632;2023-03-07T15:09:29;13.60;;;9.83;;
15412;SDS011;7805;49.554;7.632;2023-03-07T15:12:01;14.60;;;10.17;;
15412;SDS011;7805;49.554;7.632;2023-03-07T15:17:25;13.27;;;10.40;;
15412;SDS011;7805;49.554;7.632;2023-03-07T15:20:06;13.20;;;9.90;;
15412;SDS011;7805;49.554;7.632;2023-03-07T15:22:59;16.13;;;10.30;;
15412;SDS011;7805;49.554;7.632;2023-03-07T15:25:30;17.47;;;11.40;;
15412;SDS011;7805;49.554;7.632;2023-03-07T15:28:16;12.27;;;10.00;;
15412;SDS011;7805;49.554;7.632;2023-03-07T15:30:47;15.27;;;10.17;;
15412;SDS011;7805;49.554;7.632;2023-03-07T15:35:45;15.50;;;10.60;;
15412;SDS011;7805;49.554;7.632;2023-03-07T15:38:31;17.67;;;10.10;;
15412;SDS011;7805;49.554;7.632;2023-03-07T15:40:57;13.37;;;9.67;;
15412;SDS011;7805;49.554;7.632;2023-03-07T15:51:11;14.27;;;9.63;;
15412;SDS011;7805;49.554;7.632;2023-03-07T15:53:42;11.90;;;9.47;;
15412;SDS011;7805;49.554;7.632;2023-03-07T15:58:48;13.87;;;8.83;;
15412;SDS011;7805;49.554;7.632;2023-03-07T16:03:50;13.43;;;8.57;;
15412;SDS011;7805;49.554;7.632;2023-03-07T16:06:40;15.03;;;9.23;;
15412;SDS011;7805;49.554;7.632;2023-03-07T16:09:14;12.63;;;9.47;;
15412;SDS011;7805;49.554;7.632;2023-03-07T16:11:41;15.13;;;10.20;;
15412;SDS011;7805;49.554;7.632;2023-03-07T16:16:49;11.70;;;8.73;;
15412;SDS011;7805;49.554;7.632;2023-03-07T16:19:33;11.47;;;9.23;;
15412;SDS011;7805;49.554;7.632;2023-03-07T16:21:58;10.00;;;7.87;;
15412;SDS011;7805;49.554;7.632;2023-03-07T16:24:24;12.60;;;8.47;;
15412;SDS011;7805;49.554;7.632;2023-03-07T16:26:50;11.90;;;8.80;;
15412;SDS011;7805;49.554;7.632;2023-03-07T16:29:16;10.63;;;7.73;;
15412;SDS011;7805;49.554;7.632;2023-03-07T16:31:44;11.30;;;8.90;;
15412;SDS011;7805;49.554;7.632;2023-03-07T16:34:12;17.97;;;10.80;;
15412;SDS011;7805;49.554;7.632;2023-03-07T16:36:40;14.83;;;11.53;;
15412;SDS011;7805;49.554;7.632;2023-03-07T16:39:06;26.33;;;17.87;;
15412;SDS011;7805;49.554;7.632;2023-03-07T16:41:32;11.03;;;8.33;;
15412;SDS011;7805;49.554;7.632;2023-03-07T16:44:01;11.37;;;8.23;;
15412;SDS011;7805;49.554;7.632;2023-03-07T16:46:26;11.23;;;8.10;;
15412;SDS011;7805;49.554;7.632;2023-03-07T16:48:52;10.53;;;7.10;;
15412;SDS011;7805;49.554;7.632;2023-03-07T16:51:19;9.47;;;7.30;;
15412;SDS011;7805;49.554;7.632;2023-03-07T16:53:46;11.00;;;7.87;;
15412;SDS011;7805;49.554;7.632;2023-03-07T16:56:22;9.87;;;8.03;;
15412;SDS011;7805;49.554;7.632;2023-03-07T16:58:52;10.23;;;8.27;;
15412;SDS011;7805;49.554;7.632;2023-03-07T17:01:18;8.90;;;7.87;;
15412;SDS011;7805;49.554;7.632;2023-03-07T17:03:43;10.23;;;7.47;;
15412;SDS011;7805;49.554;7.632;2023-03-07T17:06:12;13.27;;;9.23;;
15412;SDS011;7805;49.554;7.632;2023-03-07T17:08:40;8.43;;;6.70;;
15412;SDS011;7805;49.554;7.632;2023-03-07T17:11:16;9.70;;;7.50;;
15412;SDS011;7805;49.554;7.632;2023-03-07T17:13:47;9.57;;;7.43;;
15412;SDS011;7805;49.554;7.632;2023-03-07T17:16:15;10.77;;;7.63;;
15412;SDS011;7805;49.554;7.632;2023-03-07T17:18:41;10.27;;;7.80;;
15412;SDS011;7805;49.554;7.632;2023-03-07T17:21:17;9.43;;;7.20;;
15412;SDS011;7805;49.554;7.632;2023-03-07T17:23:44;9.43;;;7.67;;
15412;SDS011;7805;49.554;7.632;2023-03-07T17:26:15;11.10;;;8.07;;
15412;SDS011;7805;49.554;7.632;2023-03-07T17:29:04;9.57;;;7.60;;
15412;SDS011;7805;49.554;7.632;2023-03-07T17:31:33;12.80;;;7.90;;
15412;SDS011;7805;49.554;7.632;2023-03-07T17:33:59;11.20;;;7.23;;
15412;SDS011;7805;49.554;7.632;2023-03-07T17:36:24;9.50;;;7.57;;
15412;SDS011;7805;49.554;7.632;2023-03-07T17:38:50;11.50;;;8.13;;
15412;SDS011;7805;49.554;7.632;2023-03-07T17:41:16;10.13;;;7.20;;
15412;SDS011;7805;49.554;7.632;2023-03-07T17:43:41;11.47;;;8.80;;
15412;SDS011;7805;49.554;7.632;2023-03-07T17:46:07;9.40;;;7.47;;
15412;SDS011;7805;49.554;7.632;2023-03-07T17:48:33;9.37;;;8.00;;
15412;SDS011;7805;49.554;7.632;2023-03-07T17:50:59;12.03;;;9.13;;
15412;SDS011;7805;49.554;7.632;2023-03-07T17:53:25;9.80;;;8.10;;